Time;durP1;ratioP1;P1;durP2;ratioP2;P2;SDS_P1;SDS_P2;PMS_P1;PMS_P2;Temp;Humidity;BMP_temperature;BMP_pressure;BME280_temperature;BME280_humidity;BME280_pressure;Samples;Min_cycle;Max_cycle;Signal;HPM_P1;HPM_P2
2022/12/27 00:01:56;;;;;;;2.03;1.70;;;7.00;93.70;;;;;;5059152;28;20203;-87
2022/12/27 00:04:21;;;;;;;1.60;1.50;;;7.00;93.50;;;;;;5055322;28;20191;-88
2022/12/27 00:06:47;;;;;;;4.83;1.80;;;6.90;92.60;;;;;;5055297;28;20192;-87
2022/12/27 00:09:13;;;;;;;3.97;1.80;;;6.90;93.10;;;;;;5069850;28;20228;-87
2022/12/27 00:11:39;;;;;;;2.60;1.47;;;6.80;93.10;;;;;;5064535;28;20212;-86
2022/12/27 00:14:06;;;;;;;2.00;1.80;;;6.80;91.90;;;;;;5066371;28;20284;-86
2022/12/27 00:16:32;;;;;;;3.77;1.97;;;6.70;93.70;;;;;;5064317;28;20188;-88
2022/12/27 00:18:58;;;;;;;3.67;1.87;;;6.70;93.40;;;;;;5062927;28;20191;-88
2022/12/27 00:21:23;;;;;;;3.33;1.70;;;6.70;92.20;;;;;;5068611;28;20180;-86
2022/12/27 00:23:52;;;;;;;3.10;1.80;;;6.60;95.00;;;;;;5058796;28;20192;-87
2022/12/27 00:26:21;;;;;;;2.83;1.60;;;6.60;93.40;;;;;;5047222;28;20204;-87
2022/12/27 00:28:46;;;;;;;2.93;1.83;;;6.60;93.80;;;;;;5066065;28;20188;-86
2022/12/27 00:31:13;;;;;;;2.17;1.70;;;6.60;93.90;;;;;;5058491;28;20216;-87
2022/12/27 00:33:41;;;;;;;3.87;1.80;;;6.50;94.70;;;;;;5061802;28;20195;-88
2022/12/27 00:36:10;;;;;;;3.67;1.70;;;6.50;94.70;;;;;;5070411;28;20270;-87
2022/12/27 00:38:36;;;;;;;2.83;1.70;;;6.50;95.00;;;;;;5062396;28;20189;-88
2022/12/27 00:41:03;;;;;;;2.40;1.70;;;6.40;94.60;;;;;;5062385;28;20498;-89
2022/12/27 00:43:28;;;;;;;3.87;1.73;;;6.40;95.60;;;;;;5060289;28;20184;-87
2022/12/27 00:45:54;;;;;;;2.90;1.70;;;6.30;95.40;;;;;;5071616;28;20202;-88
2022/12/27 00:48:20;;;;;;;4.67;2.00;;;6.20;96.00;;;;;;5055438;28;20392;-89
2022/12/27 00:50:46;;;;;;;5.77;1.90;;;6.20;98.00;;;;;;5060538;28;20216;-88
2022/12/27 00:53:12;;;;;;;1.70;1.50;;;6.20;98.40;;;;;;5062662;28;20180;-87
2022/12/27 00:55:41;;;;;;;3.30;2.07;;;6.10;97.70;;;;;;5064808;28;20188;-87
2022/12/27 00:58:06;;;;;;;2.43;1.70;;;5.90;98.50;;;;;;5060736;28;20183;-87
2022/12/27 01:00:32;;;;;;;3.83;2.00;;;5.80;99.50;;;;;;5062665;28;20216;-87
2022/12/27 01:02:58;;;;;;;2.20;1.63;;;5.80;99.90;;;;;;5060471;28;20181;-88
2022/12/27 01:05:24;;;;;;;2.43;1.80;;;5.70;99.90;;;;;;5060394;28;20192;-86
2022/12/27 01:07:49;;;;;;;3.97;2.00;;;5.70;99.90;;;;;;5068488;28;20204;-86
2022/12/27 01:10:15;;;;;;;2.73;1.87;;;5.60;99.90;;;;;;5057047;28;20292;-88
2022/12/27 01:12:41;;;;;;;9.53;2.40;;;5.60;99.90;;;;;;5060121;28;20526;-87
2022/12/27 01:15:07;;;;;;;6.27;2.10;;;5.60;99.90;;;;;;5057279;28;20189;-87
2022/12/27 01:17:34;;;;;;;3.93;2.00;;;5.60;99.90;;;;;;5045580;28;20231;-86
2022/12/27 01:19:59;;;;;;;3.90;1.83;;;5.70;99.90;;;;;;5061066;28;20228;-87
2022/12/27 01:22:26;;;;;;;5.33;2.10;;;5.60;99.90;;;;;;5064613;28;20195;-87
2022/12/27 01:24:52;;;;;;;2.80;1.97;;;5.60;99.90;;;;;;5058298;28;20173;-89
2022/12/27 01:27:18;;;;;;;2.77;1.90;;;5.50;99.90;;;;;;5056850;28;20199;-88
2022/12/27 01:29:44;;;;;;;4.70;2.00;;;5.50;99.90;;;;;;5060400;28;20236;-91
2022/12/27 01:32:09;;;;;;;3.57;1.90;;;5.60;99.90;;;;;;5058739;28;20203;-89
2022/12/27 01:34:35;;;;;;;2.70;1.80;;;5.60;99.90;;;;;;5067302;28;20203;-86
2022/12/27 01:37:01;;;;;;;5.00;2.00;;;5.60;99.90;;;;;;5083685;28;20180;-87
2022/12/27 01:39:27;;;;;;;3.70;2.23;;;5.50;99.90;;;;;;5065635;28;20212;-86
2022/12/27 01:44:42;;;;;;;3.97;1.93;;;5.40;99.90;;;;;;5068929;28;20226;-87
2022/12/27 01:47:11;;;;;;;2.67;1.80;;;5.40;99.90;;;;;;5051834;28;20192;-85
2022/12/27 01:50:03;;;;;;;4.30;1.70;;;5.50;99.90;;;;;;5060617;28;20200;-87
2022/12/27 01:52:42;;;;;;;2.97;1.70;;;5.40;99.90;;;;;;5025921;28;20211;-88
2022/12/27 01:55:21;;;;;;;2.63;1.83;;;5.40;99.90;;;;;;5062919;28;20177;-86
2022/12/27 01:57:50;;;;;;;2.70;2.13;;;5.30;99.90;;;;;;5067528;28;20195;-87
2022/12/27 02:00:16;;;;;;;2.67;1.67;;;5.30;99.90;;;;;;5060055;28;20211;-87
2022/12/27 02:02:42;;;;;;;3.80;1.90;;;5.40;99.90;;;;;;5057742;28;20227;-87
2022/12/27 02:05:10;;;;;;;3.17;1.90;;;5.40;99.90;;;;;;5053456;28;20192;-86
2022/12/27 02:08:03;;;;;;;1.80;1.70;;;5.40;99.90;;;;;;5060528;28;20235;-88
2022/12/27 02:10:30;;;;;;;1.97;1.77;;;5.50;99.90;;;;;;5056416;28;20216;-86
2022/12/27 02:12:57;;;;;;;4.43;1.97;;;5.40;99.90;;;;;;5057393;28;20181;-86
2022/12/27 02:15:22;;;;;;;3.50;1.80;;;5.30;99.90;;;;;;5062846;28;20191;-86
2022/12/27 02:17:48;;;;;;;1.93;1.70;;;5.20;99.90;;;;;;5053365;28;20177;-87
2022/12/27 02:20:21;;;;;;;3.07;1.83;;;5.20;99.90;;;;;;5057189;28;20666;-86
2022/12/27 02:26:21;;;;;;;2.77;1.83;;;5.30;99.90;;;;;;5065474;28;20203;-87
2022/12/27 02:29:02;;;;;;;3.57;2.23;;;5.10;99.90;;;;;;5059742;28;20204;-88
2022/12/27 02:31:35;;;;;;;3.00;2.07;;;5.10;99.90;;;;;;5058904;28;20209;-85
2022/12/27 02:34:07;;;;;;;3.90;1.97;;;5.00;99.90;;;;;;5062394;28;20212;-88
2022/12/27 02:36:35;;;;;;;2.97;2.00;;;4.80;99.90;;;;;;5054296;28;20183;-87
2022/12/27 02:39:02;;;;;;;2.50;2.10;;;4.90;99.90;;;;;;5054791;28;20189;-87
2022/12/27 02:53:11;;;;;;;2.63;2.00;;;4.80;99.90;;;;;;5061574;28;20263;-86
2022/12/27 02:59:03;;;;;;;2.40;2.20;;;4.60;99.90;;;;;;5054926;28;20188;-87
2022/12/27 03:04:44;;;;;;;4.90;2.10;;;4.60;99.90;;;;;;5071354;28;20199;-88
2022/12/27 03:07:38;;;;;;;4.57;2.33;;;4.50;99.90;;;;;;5066596;28;20188;-85
2022/12/27 03:16:31;;;;;;;3.43;2.20;;;4.50;99.90;;;;;;5067245;28;20190;-86
2022/12/27 03:27:42;;;;;;;4.57;2.00;;;4.50;99.90;;;;;;5069083;28;20198;-86
2022/12/27 03:33:13;;;;;;;4.50;2.27;;;4.40;99.90;;;;;;5061633;28;20227;-87
2022/12/27 03:38:01;;;;;;;2.93;2.20;;;4.40;99.90;;;;;;5047178;28;20199;-87
2022/12/27 03:38:42;;;;;;;4.87;2.47;;;4.40;99.90;;;;;;5061567;28;20226;-86
2022/12/27 03:43:56;;;;;;;3.43;2.43;;;4.40;99.90;;;;;;5066384;28;20179;-87
2022/12/27 03:46:33;;;;;;;3.07;2.03;;;4.40;99.90;;;;;;5058888;28;20219;-87
2022/12/27 03:49:05;;;;;;;3.87;2.43;;;4.30;99.90;;;;;;5043502;28;20198;-86
2022/12/27 03:51:50;;;;;;;4.87;2.77;;;4.30;99.90;;;;;;5068237;28;20220;-87
2022/12/27 03:54:33;;;;;;;8.00;2.70;;;4.30;99.90;;;;;;5058350;28;20299;-89
2022/12/27 03:57:12;;;;;;;3.20;2.10;;;4.40;99.90;;;;;;5060771;28;20188;-87
2022/12/27 03:59:38;;;;;;;5.70;2.57;;;4.40;99.90;;;;;;5061033;28;20264;-88
2022/12/27 04:02:05;;;;;;;4.20;2.40;;;4.40;99.90;;;;;;5055845;28;20543;-87
2022/12/27 04:04:31;;;;;;;4.07;2.13;;;4.40;99.90;;;;;;5051044;28;20192;-88
2022/12/27 04:06:57;;;;;;;7.10;2.67;;;4.50;99.90;;;;;;5047894;28;20188;-88
2022/12/27 04:36:46;;;;;;;2.77;1.90;;;4.40;99.90;;;;;;5063084;28;20234;-88
2022/12/27 04:39:12;;;;;;;3.50;2.10;;;4.20;99.90;;;;;;5065828;28;20192;-87
2022/12/27 04:56:01;;;;;;;5.50;2.33;;;4.20;99.90;;;;;;5060042;28;20195;-86
2022/12/27 04:58:27;;;;;;;6.07;2.43;;;4.30;99.90;;;;;;5058888;28;20219;-85
2022/12/27 05:03:40;;;;;;;3.73;2.23;;;4.70;99.90;;;;;;5058317;28;20261;-88
2022/12/27 05:06:06;;;;;;;3.20;2.00;;;4.80;99.90;;;;;;5056626;28;20177;-89
2022/12/27 05:14:05;;;;;;;2.20;2.00;;;4.60;99.90;;;;;;5058488;28;20219;-88
2022/12/27 05:16:39;;;;;;;2.77;2.03;;;4.50;99.90;;;;;;5034676;28;20654;-88
2022/12/27 05:19:07;;;;;;;4.17;2.20;;;4.40;99.90;;;;;;5045646;28;20200;-88
2022/12/27 05:21:37;;;;;;;4.00;2.40;;;4.20;99.90;;;;;;5074613;28;20179;-87
2022/12/27 05:26:58;;;;;;;4.63;2.07;;;4.30;99.90;;;;;;4984182;28;20191;-88
2022/12/27 05:29:24;;;;;;;2.83;2.40;;;4.20;99.90;;;;;;5069604;28;20283;-86
2022/12/27 05:31:49;;;;;;;4.53;2.30;;;4.10;99.90;;;;;;5062366;28;20216;-86
2022/12/27 05:34:15;;;;;;;3.13;2.13;;;4.00;99.90;;;;;;5064260;28;20231;-87
2022/12/27 05:36:41;;;;;;;4.20;2.53;;;4.00;99.90;;;;;;5057665;28;20197;-89
2022/12/27 05:39:06;;;;;;;5.00;2.67;;;3.90;99.90;;;;;;5052585;28;20200;-87
2022/12/27 05:41:32;;;;;;;3.07;2.20;;;3.90;99.90;;;;;;5068299;28;20212;-86
2022/12/27 05:43:58;;;;;;;3.77;2.20;;;3.90;99.90;;;;;;5060516;28;20177;-87
2022/12/27 05:46:23;;;;;;;3.13;2.10;;;3.80;99.90;;;;;;5065743;28;20248;-87
2022/12/27 05:48:49;;;;;;;5.33;2.33;;;3.80;99.90;;;;;;5070336;28;20180;-88
2022/12/27 05:56:24;;;;;;;3.13;2.17;;;3.80;99.90;;;;;;5060295;28;20207;-86
2022/12/27 05:58:52;;;;;;;5.17;2.07;;;3.80;99.90;;;;;;5059557;28;20192;-86
2022/12/27 06:01:18;;;;;;;6.47;2.57;;;3.70;99.90;;;;;;5064428;28;20181;-87
2022/12/27 06:03:45;;;;;;;4.43;2.33;;;3.80;99.90;;;;;;5074388;28;20286;-89
2022/12/27 06:06:11;;;;;;;4.10;1.87;;;3.80;99.90;;;;;;5069470;28;20184;-86
2022/12/27 06:08:37;;;;;;;4.23;2.27;;;3.80;99.90;;;;;;5069960;28;20192;-87
2022/12/27 06:11:18;;;;;;;4.47;2.23;;;3.80;99.90;;;;;;5071497;28;20282;-87
2022/12/27 06:13:48;;;;;;;3.20;2.20;;;3.90;99.90;;;;;;5071528;28;20176;-87
2022/12/27 06:16:14;;;;;;;3.97;2.13;;;4.00;99.90;;;;;;5064353;28;20202;-85
2022/12/27 06:18:41;;;;;;;4.30;2.33;;;4.20;99.90;;;;;;5074901;28;20224;-87
2022/12/27 06:21:18;;;;;;;2.20;2.00;;;4.40;99.90;;;;;;5067367;28;20204;-87
2022/12/27 06:23:45;;;;;;;4.67;2.30;;;4.40;99.90;;;;;;5068508;28;20188;-87
2022/12/27 06:26:14;;;;;;;4.63;2.20;;;4.50;99.90;;;;;;5069978;28;20188;-87
2022/12/27 06:28:39;;;;;;;2.73;2.10;;;4.60;99.90;;;;;;5068846;28;20193;-86
2022/12/27 06:31:05;;;;;;;2.57;2.03;;;4.60;99.90;;;;;;5071481;28;20441;-88
2022/12/27 06:33:31;;;;;;;3.80;2.40;;;4.80;99.90;;;;;;5070224;28;20200;-88
2022/12/27 06:35:57;;;;;;;4.17;2.17;;;4.70;99.90;;;;;;5066390;28;20276;-88
2022/12/27 06:38:23;;;;;;;3.50;1.90;;;4.70;99.90;;;;;;5061007;28;20185;-87
2022/12/27 06:40:49;;;;;;;2.80;2.00;;;4.80;99.90;;;;;;5068202;28;20235;-87
2022/12/27 06:43:15;;;;;;;2.37;2.03;;;4.70;99.90;;;;;;5060877;28;20243;-86
2022/12/27 06:45:40;;;;;;;2.37;1.87;;;4.70;99.90;;;;;;5062020;28;20188;-87
2022/12/27 06:48:06;;;;;;;2.13;1.83;;;4.70;99.90;;;;;;5070999;28;20207;-88
2022/12/27 06:50:32;;;;;;;2.77;2.40;;;4.60;99.90;;;;;;5066774;28;20212;-87
2022/12/27 06:52:58;;;;;;;2.33;2.10;;;4.60;99.90;;;;;;5058720;28;20189;-87
2022/12/27 06:55:24;;;;;;;3.97;2.20;;;4.70;99.90;;;;;;5057849;28;20740;-87
2022/12/27 06:57:50;;;;;;;3.43;2.00;;;4.70;99.90;;;;;;5061802;28;20237;-87
2022/12/27 07:00:17;;;;;;;6.07;2.30;;;4.60;99.90;;;;;;5063499;28;20215;-86
2022/12/27 07:02:42;;;;;;;2.77;2.00;;;4.60;99.90;;;;;;5054203;28;20193;-88
2022/12/27 07:05:08;;;;;;;2.60;1.80;;;4.40;99.90;;;;;;5060880;28;20185;-87
2022/12/27 07:07:34;;;;;;;2.30;2.10;;;4.30;99.90;;;;;;5061201;28;20211;-90
2022/12/27 07:10:00;;;;;;;4.93;2.40;;;4.40;99.90;;;;;;5056792;28;20280;-87
2022/12/27 07:12:26;;;;;;;3.27;2.27;;;4.50;99.90;;;;;;5065241;28;20180;-87
2022/12/27 07:14:51;;;;;;;2.90;2.23;;;4.60;99.90;;;;;;5064255;28;20184;-87
2022/12/27 07:17:17;;;;;;;3.53;2.27;;;4.50;99.90;;;;;;5067786;28;20196;-89
2022/12/27 07:19:43;;;;;;;2.67;2.20;;;4.60;99.90;;;;;;5057541;28;20200;-87
2022/12/27 07:22:08;;;;;;;2.17;1.97;;;4.60;99.90;;;;;;5066728;28;20717;-88
2022/12/27 07:24:34;;;;;;;3.40;2.27;;;4.70;99.90;;;;;;5063416;28;20188;-88
2022/12/27 07:27:04;;;;;;;2.93;2.20;;;4.80;99.90;;;;;;5058132;28;20211;-87
2022/12/27 07:29:30;;;;;;;2.90;2.30;;;4.90;99.90;;;;;;5054901;28;20219;-87
2022/12/27 07:31:56;;;;;;;4.27;3.00;;;4.80;99.90;;;;;;5060534;28;20184;-88
2022/12/27 07:34:21;;;;;;;2.80;2.30;;;4.80;99.90;;;;;;5060284;28;20195;-90
2022/12/27 07:36:47;;;;;;;4.97;2.40;;;4.80;99.90;;;;;;5061514;28;20188;-87
2022/12/27 07:39:13;;;;;;;3.07;2.30;;;4.80;99.90;;;;;;5064720;28;20192;-88
2022/12/27 07:41:39;;;;;;;4.60;2.40;;;4.80;99.90;;;;;;5069076;28;20176;-87
2022/12/27 07:44:06;;;;;;;5.27;2.30;;;4.80;99.90;;;;;;5063548;28;20195;-89
2022/12/27 07:46:32;;;;;;;3.93;2.20;;;4.70;99.90;;;;;;5053701;28;20634;-87
2022/12/27 07:48:58;;;;;;;3.30;2.10;;;4.60;99.90;;;;;;5061108;28;20180;-90
2022/12/27 07:51:25;;;;;;;4.90;2.53;;;4.50;99.90;;;;;;5065952;28;20211;-87
2022/12/27 07:53:51;;;;;;;3.00;2.37;;;4.50;99.90;;;;;;5070065;28;20245;-89
2022/12/27 07:56:25;;;;;;;4.87;2.10;;;4.50;99.90;;;;;;5057916;28;20196;-87
2022/12/27 07:58:52;;;;;;;5.60;2.20;;;4.60;99.90;;;;;;5060974;28;20184;-88
2022/12/27 08:01:19;;;;;;;3.00;2.13;;;4.60;99.90;;;;;;5058322;28;20200;-88
2022/12/27 08:03:45;;;;;;;2.43;2.10;;;4.70;99.90;;;;;;5069241;28;20215;-91
2022/12/27 08:06:19;;;;;;;2.43;2.23;;;4.70;99.90;;;;;;5070974;28;20203;-88
2022/12/27 08:08:45;;;;;;;2.40;2.20;;;4.70;99.90;;;;;;5069409;28;20203;-90
2022/12/27 08:11:12;;;;;;;3.10;2.10;;;4.70;99.90;;;;;;5079211;28;20247;-88
2022/12/27 08:13:38;;;;;;;2.50;2.30;;;4.70;99.90;;;;;;5069247;28;20195;-87
2022/12/27 08:16:05;;;;;;;4.13;2.00;;;4.80;99.90;;;;;;5054337;28;20215;-87
2022/12/27 08:18:30;;;;;;;3.83;2.23;;;4.80;99.90;;;;;;5061241;28;20218;-86
2022/12/27 08:20:56;;;;;;;3.17;2.27;;;4.90;99.90;;;;;;5058206;28;20204;-87
2022/12/27 08:23:22;;;;;;;3.83;2.30;;;5.00;99.90;;;;;;5063021;28;20255;-87
2022/12/27 08:25:48;;;;;;;3.30;2.50;;;5.00;99.90;;;;;;5058957;28;20224;-87
2022/12/27 08:28:16;;;;;;;3.30;2.43;;;5.00;99.90;;;;;;5063367;28;20204;-88
2022/12/27 08:30:43;;;;;;;2.87;2.00;;;5.10;99.90;;;;;;5069715;28;20705;-88
2022/12/27 08:33:10;;;;;;;3.37;2.53;;;5.20;99.90;;;;;;5055667;28;20189;-87
2022/12/27 08:35:43;;;;;;;3.37;2.50;;;5.30;99.90;;;;;;5066064;28;20168;-86
2022/12/27 08:38:09;;;;;;;4.90;3.27;;;5.40;99.90;;;;;;5063435;28;20191;-88
2022/12/27 08:40:41;;;;;;;3.30;3.00;;;5.40;99.90;;;;;;5064449;28;20213;-90
2022/12/27 08:43:07;;;;;;;6.03;3.20;;;5.40;99.90;;;;;;5066247;28;20204;-87
2022/12/27 08:45:33;;;;;;;4.93;3.10;;;5.40;99.90;;;;;;5059841;28;20235;-88
2022/12/27 08:47:59;;;;;;;4.90;3.00;;;5.30;99.90;;;;;;5061590;28;20192;-86
2022/12/27 08:50:26;;;;;;;3.23;2.73;;;5.30;99.90;;;;;;5060050;28;20235;-86
2022/12/27 08:52:55;;;;;;;4.30;3.30;;;5.30;99.90;;;;;;5066762;28;20201;-89
2022/12/27 08:55:20;;;;;;;3.40;3.10;;;5.40;99.90;;;;;;5066804;28;20253;-89
2022/12/27 08:57:46;;;;;;;3.63;3.17;;;5.50;99.90;;;;;;5067380;28;20262;-90
2022/12/27 09:00:13;;;;;;;5.90;4.23;;;5.50;99.90;;;;;;5073251;28;20244;-88
2022/12/27 09:02:38;;;;;;;4.57;3.57;;;5.50;99.90;;;;;;5063178;28;20196;-89
2022/12/27 09:05:05;;;;;;;5.67;4.60;;;5.60;99.90;;;;;;5070320;28;20216;-89
2022/12/27 09:07:31;;;;;;;7.30;4.77;;;5.40;99.90;;;;;;5075255;28;20231;-90
2022/12/27 09:09:57;;;;;;;5.80;4.10;;;5.50;99.90;;;;;;5065259;28;20213;-87
2022/12/27 09:12:22;;;;;;;4.70;4.00;;;5.50;99.90;;;;;;5065836;28;20188;-88
2022/12/27 09:14:48;;;;;;;7.03;4.40;;;5.40;99.90;;;;;;5066979;28;20728;-88
2022/12/27 09:17:14;;;;;;;4.93;4.03;;;5.40;99.90;;;;;;5065179;28;20180;-87
2022/12/27 09:19:40;;;;;;;4.60;4.20;;;5.50;99.90;;;;;;5073506;28;20212;-86
2022/12/27 09:22:05;;;;;;;6.10;3.70;;;5.60;99.90;;;;;;5061470;28;20177;-86
2022/12/27 09:24:31;;;;;;;4.87;4.37;;;5.70;99.90;;;;;;5055675;28;20181;-87
2022/12/27 09:26:57;;;;;;;5.17;4.00;;;5.80;99.90;;;;;;5065963;28;20191;-87
2022/12/27 09:29:24;;;;;;;5.03;3.70;;;5.80;99.90;;;;;;5073527;28;20215;-88
2022/12/27 09:31:50;;;;;;;4.40;4.00;;;5.80;99.90;;;;;;5071075;28;20298;-86
2022/12/27 09:34:16;;;;;;;5.97;4.47;;;5.90;99.90;;;;;;5065607;28;20196;-86
2022/12/27 09:36:42;;;;;;;6.27;4.37;;;5.80;99.40;;;;;;5056995;28;20184;-89
2022/12/27 09:39:11;;;;;;;5.97;4.40;;;5.80;99.10;;;;;;5054499;28;20189;-87
2022/12/27 09:42:10;;;;;;;5.10;4.47;;;5.60;99.90;;;;;;5065214;28;20284;-87
2022/12/27 09:44:49;;;;;;;4.03;3.57;;;5.50;99.90;;;;;;5059435;28;20257;-87
2022/12/27 09:47:24;;;;;;;5.00;4.10;;;5.50;99.90;;;;;;5054721;28;20199;-89
2022/12/27 09:49:54;;;;;;;5.47;4.10;;;5.70;99.90;;;;;;5064241;28;20219;-87
2022/12/27 09:52:41;;;;;;;3.80;3.27;;;5.90;99.30;;;;;;5061885;28;20173;-86
2022/12/27 09:55:47;;;;;;;5.93;3.67;;;6.00;98.70;;;;;;5091445;28;20215;-88
2022/12/27 09:58:19;;;;;;;4.80;4.30;;;6.10;99.50;;;;;;5013751;28;20210;-88
2022/12/27 10:00:48;;;;;;;5.00;3.40;;;6.20;99.80;;;;;;5012448;28;20221;-88
2022/12/27 10:03:14;;;;;;;4.53;3.23;;;6.20;99.90;;;;;;5050035;28;20192;-86
2022/12/27 10:05:44;;;;;;;3.77;3.00;;;6.30;99.90;;;;;;5066844;28;20212;-89
2022/12/27 10:08:19;;;;;;;7.03;3.10;;;6.30;99.20;;;;;;5061178;28;20212;-85
2022/12/27 10:10:53;;;;;;;5.17;3.63;;;6.40;98.80;;;;;;5063030;28;20227;-90
2022/12/27 10:13:48;;;;;;;4.00;3.10;;;6.40;99.20;;;;;;5064631;28;20177;-91
2022/12/27 10:16:37;;;;;;;3.83;3.30;;;6.00;99.00;;;;;;5066445;28;20177;-91
2022/12/27 10:19:21;;;;;;;5.07;3.50;;;5.90;99.90;;;;;;5068154;28;20184;-88
2022/12/27 10:22:04;;;;;;;4.60;2.93;;;5.90;99.90;;;;;;5064445;28;20180;-85
2022/12/27 10:24:39;;;;;;;7.63;3.10;;;5.90;99.90;;;;;;5054013;28;20196;-87
2022/12/27 10:27:22;;;;;;;7.03;3.07;;;6.00;99.90;;;;;;5063153;28;20176;-88
2022/12/27 10:29:52;;;;;;;4.53;3.00;;;6.10;99.90;;;;;;5065761;28;20242;-88
2022/12/27 10:32:18;;;;;;;5.40;3.20;;;6.50;99.90;;;;;;5060265;28;20236;-86
2022/12/27 10:34:44;;;;;;;5.97;3.03;;;6.80;97.90;;;;;;5057083;28;20195;-86
2022/12/27 10:37:14;;;;;;;7.23;3.13;;;7.00;95.20;;;;;;5057051;28;20185;-87
2022/12/27 10:39:41;;;;;;;4.97;3.00;;;7.10;95.00;;;;;;5058857;28;20209;-88
2022/12/27 10:42:15;;;;;;;4.60;2.70;;;7.30;93.20;;;;;;5061688;28;20188;-87
2022/12/27 10:44:41;;;;;;;4.93;2.60;;;7.30;94.50;;;;;;5060557;28;20188;-86
2022/12/27 10:47:07;;;;;;;4.73;2.47;;;7.40;91.00;;;;;;5063971;28;20184;-86
2022/12/27 10:49:34;;;;;;;4.23;2.40;;;7.30;92.60;;;;;;5053883;28;20205;-87
2022/12/27 10:52:15;;;;;;;3.97;2.40;;;7.30;93.20;;;;;;5052422;28;20210;-83
2022/12/27 10:54:59;;;;;;;2.70;2.43;;;7.30;93.00;;;;;;5067166;28;20360;-85
2022/12/27 10:57:32;;;;;;;5.50;2.50;;;7.40;92.70;;;;;;5064756;28;20211;-87
2022/12/27 11:00:17;;;;;;;3.03;2.40;;;7.40;94.40;;;;;;5068351;28;20300;-88
2022/12/27 11:02:56;;;;;;;4.23;2.50;;;7.50;93.60;;;;;;5057192;28;20180;-88
2022/12/27 11:05:25;;;;;;;4.37;2.97;;;7.40;93.00;;;;;;5060937;28;20212;-85
2022/12/27 11:07:51;;;;;;;3.10;2.40;;;7.60;91.90;;;;;;5054997;28;20192;-86
2022/12/27 11:10:20;;;;;;;2.80;2.57;;;7.70;90.90;;;;;;5051949;28;20204;-86
2022/12/27 11:13:16;;;;;;;5.20;2.50;;;7.80;91.60;;;;;;5054258;28;20181;-87
2022/12/27 11:15:52;;;;;;;4.10;3.10;;;7.70;91.50;;;;;;5060949;28;20438;-86
2022/12/27 11:18:20;;;;;;;6.97;3.10;;;7.90;91.90;;;;;;5057622;28;20188;-89
2022/12/27 11:20:52;;;;;;;3.90;2.33;;;7.90;91.60;;;;;;5060273;28;20287;-87
2022/12/27 11:23:21;;;;;;;3.70;2.37;;;8.00;90.70;;;;;;5063252;28;20164;-87
2022/12/27 11:25:59;;;;;;;5.27;3.00;;;8.40;87.60;;;;;;5056851;28;20189;-89
2022/12/27 11:28:37;;;;;;;2.93;2.63;;;8.50;87.70;;;;;;5056798;28;20189;-89
2022/12/27 11:31:09;;;;;;;4.20;2.80;;;8.80;87.10;;;;;;5059985;28;20216;-88
2022/12/27 11:33:44;;;;;;;6.53;2.83;;;8.70;88.60;;;;;;5061223;28;20197;-86
2022/12/27 11:36:12;;;;;;;6.40;3.00;;;8.80;86.20;;;;;;5065610;28;20188;-88
2022/12/27 11:38:41;;;;;;;3.10;2.70;;;8.70;87.90;;;;;;5061956;28;20184;-86
2022/12/27 11:41:10;;;;;;;4.90;2.73;;;8.70;88.40;;;;;;5063343;28;20204;-88
2022/12/27 11:43:47;;;;;;;2.93;2.73;;;8.60;87.80;;;;;;5058144;28;20180;-90
2022/12/27 11:46:29;;;;;;;4.03;2.87;;;8.50;86.40;;;;;;5068752;28;20274;-88
2022/12/27 11:48:57;;;;;;;3.83;2.50;;;8.30;88.60;;;;;;5054026;28;20188;-87
2022/12/27 11:51:55;;;;;;;4.67;2.47;;;8.30;88.70;;;;;;5067521;28;20307;-89
2022/12/27 11:54:28;;;;;;;3.57;2.90;;;8.30;90.60;;;;;;5031750;28;20242;-88
2022/12/27 11:57:18;;;;;;;3.77;2.80;;;8.30;88.90;;;;;;5071812;28;20182;-90
2022/12/27 12:00:21;;;;;;;4.83;2.73;;;8.30;90.60;;;;;;5056915;28;20407;-88
2022/12/27 12:03:00;;;;;;;3.87;2.20;;;8.30;90.10;;;;;;5063422;28;20187;-90
2022/12/27 12:05:44;;;;;;;4.27;2.60;;;8.40;89.20;;;;;;5056932;28;20202;-88
2022/12/27 12:08:35;;;;;;;3.67;3.00;;;8.30;89.40;;;;;;5061702;28;20192;-87
2022/12/27 12:11:29;;;;;;;4.47;2.33;;;8.30;89.30;;;;;;5058003;28;20235;-89
2022/12/27 12:14:22;;;;;;;3.30;2.73;;;8.30;91.00;;;;;;5054164;28;20235;-83
2022/12/27 12:17:02;;;;;;;4.47;2.70;;;8.50;89.80;;;;;;5065176;28;20190;-86
2022/12/27 12:20:01;;;;;;;6.60;3.50;;;8.60;88.00;;;;;;5063468;28;20235;-86
2022/12/27 12:22:35;;;;;;;3.93;2.90;;;8.60;89.60;;;;;;5058092;28;20268;-88
2022/12/27 12:25:29;;;;;;;5.33;2.80;;;8.70;89.40;;;;;;5066209;28;20176;-89
2022/12/27 12:28:03;;;;;;;5.43;2.97;;;8.90;87.60;;;;;;5072047;28;20239;-88
2022/12/27 12:30:47;;;;;;;3.20;2.87;;;9.00;86.90;;;;;;5053816;28;20228;-86
2022/12/27 12:33:12;;;;;;;3.43;2.87;;;9.00;86.00;;;;;;5064427;28;20184;-87
2022/12/27 12:36:04;;;;;;;6.23;2.90;;;9.10;85.90;;;;;;5064252;28;20199;-88
2022/12/27 12:38:59;;;;;;;5.00;3.30;;;9.00;87.10;;;;;;5067558;28;20176;-88
2022/12/27 12:41:40;;;;;;;3.97;2.90;;;8.90;86.60;;;;;;5063393;28;20181;-88
2022/12/27 12:44:24;;;;;;;3.97;2.77;;;8.80;86.20;;;;;;5071543;28;20194;-88
2022/12/27 12:47:19;;;;;;;6.60;2.70;;;8.70;87.00;;;;;;5069805;28;20202;-87
2022/12/27 12:49:51;;;;;;;2.97;2.67;;;8.40;88.40;;;;;;5068996;28;20212;-87
2022/12/27 12:52:41;;;;;;;3.50;2.90;;;8.50;89.40;;;;;;5069799;28;20211;-89
2022/12/27 12:55:43;;;;;;;4.03;2.83;;;8.40;91.40;;;;;;5074979;28;20196;-88
2022/12/27 12:58:18;;;;;;;4.97;2.73;;;8.50;89.30;;;;;;5064364;28;20188;-87
2022/12/27 13:01:07;;;;;;;4.83;2.73;;;8.40;90.00;;;;;;5059089;28;20207;-87
2022/12/27 13:04:07;;;;;;;7.80;3.00;;;8.60;88.70;;;;;;5067774;28;20180;-86
2022/12/27 13:07:15;;;;;;;4.07;2.53;;;8.60;88.50;;;;;;5067381;28;20203;-87
2022/12/27 13:09:53;;;;;;;4.67;2.83;;;8.70;88.50;;;;;;5065829;28;20208;-87
2022/12/27 13:12:30;;;;;;;3.77;2.43;;;8.60;88.90;;;;;;5068747;28;20250;-89
2022/12/27 13:14:59;;;;;;;4.80;2.40;;;8.50;88.50;;;;;;5062892;28;20161;-87
2022/12/27 13:17:34;;;;;;;4.90;2.47;;;8.30;87.80;;;;;;5069705;28;20184;-89
2022/12/27 13:20:24;;;;;;;3.97;2.27;;;8.30;88.70;;;;;;5064235;28;20192;-89
2022/12/27 13:23:10;;;;;;;3.13;2.37;;;8.40;88.10;;;;;;5070559;28;20177;-87
2022/12/27 13:25:49;;;;;;;2.33;2.13;;;8.40;88.80;;;;;;5064985;28;20204;-84
2022/12/27 13:29:09;;;;;;;2.83;2.27;;;8.40;85.70;;;;;;5059576;28;20188;-88
2022/12/27 13:31:57;;;;;;;5.03;2.50;;;8.60;84.40;;;;;;4990300;28;20958;-87
2022/12/27 13:34:50;;;;;;;3.50;2.20;;;8.50;85.50;;;;;;5055090;28;20223;-88
2022/12/27 13:37:58;;;;;;;2.97;2.17;;;8.60;84.80;;;;;;5046608;28;20181;-89
2022/12/27 13:40:35;;;;;;;3.97;2.00;;;8.50;85.40;;;;;;5053191;28;20864;-88
2022/12/27 13:43:31;;;;;;;3.87;2.20;;;8.50;83.00;;;;;;5054864;28;20681;-88
2022/12/27 13:46:43;;;;;;;5.17;2.43;;;8.70;80.70;;;;;;5059833;28;20277;-91
2022/12/27 13:49:27;;;;;;;3.70;2.23;;;8.50;82.60;;;;;;5025998;28;20268;-89
2022/12/27 13:52:01;;;;;;;4.30;2.60;;;8.40;84.30;;;;;;5060775;28;20701;-90
2022/12/27 13:54:39;;;;;;;5.30;2.50;;;8.40;84.30;;;;;;5064379;28;20211;-90
2022/12/27 13:57:29;;;;;;;5.97;2.37;;;8.60;81.40;;;;;;5057553;28;20184;-89
2022/12/27 14:00:08;;;;;;;7.83;2.70;;;8.60;83.50;;;;;;5059100;28;20208;-91
2022/12/27 14:02:50;;;;;;;4.07;2.27;;;8.50;83.40;;;;;;5055257;28;20213;-89
2022/12/27 14:05:36;;;;;;;3.07;2.47;;;8.50;82.80;;;;;;5051882;28;20666;-90
2022/12/27 14:08:23;;;;;;;7.63;2.43;;;8.40;84.80;;;;;;5055500;28;20210;-90
2022/12/27 14:10:51;;;;;;;3.37;2.53;;;8.20;85.20;;;;;;5057944;28;20221;-89
2022/12/27 14:13:34;;;;;;;8.33;2.40;;;8.00;86.20;;;;;;5057401;28;20616;-89
2022/12/27 14:16:14;;;;;;;4.63;2.63;;;8.10;86.70;;;;;;5058928;28;20176;-89
2022/12/27 14:19:09;;;;;;;3.60;2.20;;;8.20;85.40;;;;;;5056082;28;20219;-89
2022/12/27 14:21:48;;;;;;;3.10;2.30;;;8.30;84.90;;;;;;5052501;28;20304;-90
2022/12/27 14:24:26;;;;;;;5.47;2.97;;;8.00;87.00;;;;;;5051792;28;20200;-89
2022/12/27 14:27:20;;;;;;;4.00;2.30;;;8.00;87.70;;;;;;5052103;28;20189;-89
2022/12/27 14:29:46;;;;;;;4.70;2.73;;;7.90;87.90;;;;;;5062499;28;20212;-89
2022/12/27 14:32:24;;;;;;;4.47;2.70;;;7.70;89.00;;;;;;5051960;28;20227;-89
2022/12/27 14:35:02;;;;;;;5.97;2.97;;;7.60;90.00;;;;;;5050729;28;20215;-89
2022/12/27 14:37:55;;;;;;;4.47;2.63;;;7.60;90.40;;;;;;5052884;28;20206;-89
2022/12/27 14:40:53;;;;;;;4.30;2.90;;;7.60;90.50;;;;;;5062508;28;20204;-86
2022/12/27 14:43:43;;;;;;;5.07;2.80;;;7.60;91.80;;;;;;5015957;28;20196;-87
2022/12/27 14:46:36;;;;;;;4.37;2.93;;;7.50;91.80;;;;;;5062074;28;20181;-87
2022/12/27 14:49:45;;;;;;;5.67;3.03;;;7.60;91.90;;;;;;5057498;28;20180;-86
2022/12/27 14:52:50;;;;;;;5.60;3.60;;;7.70;90.10;;;;;;5057057;28;20292;-88
2022/12/27 14:55:35;;;;;;;3.53;3.13;;;7.70;89.20;;;;;;5062643;28;20206;-88
2022/12/27 14:58:19;;;;;;;4.13;3.13;;;7.50;90.10;;;;;;5060287;28;20193;-86
2022/12/27 15:01:31;;;;;;;6.33;3.77;;;7.60;88.30;;;;;;5057460;28;20234;-88
2022/12/27 15:04:10;;;;;;;4.13;3.73;;;7.60;89.50;;;;;;5050097;28;20196;-88
2022/12/27 15:07:10;;;;;;;5.17;3.63;;;7.40;89.40;;;;;;5058929;28;20276;-87
2022/12/27 15:10:00;;;;;;;7.67;4.40;;;7.40;91.00;;;;;;5059363;28;20220;-87
2022/12/27 15:12:50;;;;;;;8.83;3.70;;;7.60;91.00;;;;;;5049164;28;20239;-86
2022/12/27 15:15:45;;;;;;;5.90;3.43;;;7.60;90.30;;;;;;5061010;28;20670;-82